Terminal Aerodrome Forecast
Issued by NWS

Home | Current Version | Previous Version | Text Only | Print | Product List | Glossary On
Versions: 1 2 3 4 5 6 7 8 9 10 11 12
FTUS46 KLOX 202340
KVNY 202340Z 2100/2124 14007KT P6SM VCSH SCT080 OVC100
     FM210300 VRB03KT P6SM VCSH OVC100
     FM210800 VRB03KT P6SM -RA SCT060 OVC100
     FM211100 VRB03KT 4SM -RA SCT025 OVC050
     FM211500 05006KT 4SM -RA BR SCT015 OVC025
     FM211800 12004KT 2SM -RA BR SCT008 OVC015
     FM212000 15005KT 2SM RA BR OVC007=

USA.gov is the U.S. government's official web portal to all federal, state and local government web resources and services.